Time;durP1;ratioP1;P1;durP2;ratioP2;P2;SDS_P1;SDS_P2;PMS_P1;PMS_P2;Temp;Humidity;BMP_temperature;BMP_pressure;BME280_temperature;BME280_humidity;BME280_pressure;Samples;Min_cycle;Max_cycle;Signal;HPM_P1;HPM_P2
2022/09/18 00:02:25;;;;;;;;;;;11.70;75.60;;;;;;5029266;28;20351;-59
2022/09/18 00:04:50;;;;;;;;;;;11.60;75.60;;;;;;5028515;28;19920;-61
2022/09/18 00:07:16;;;;;;;;;;;11.60;75.60;;;;;;5028841;28;19967;-61
2022/09/18 00:09:42;;;;;;;;;;;11.60;75.40;;;;;;5030021;28;19962;-60
2022/09/18 00:12:08;;;;;;;;;;;11.60;75.50;;;;;;5025251;28;20228;-61
2022/09/18 00:14:33;;;;;;;;;;;11.50;75.60;;;;;;5028167;28;20445;-61
2022/09/18 00:16:59;;;;;;;;;;;11.60;75.60;;;;;;5030185;28;19956;-62
2022/09/18 00:19:24;;;;;;;;;;;11.60;75.90;;;;;;5031329;28;20296;-61
2022/09/18 00:21:50;;;;;;;;;;;11.60;75.70;;;;;;5025818;28;20580;-62
2022/09/18 00:24:18;;;;;;;;;;;11.60;75.60;;;;;;5027350;28;19920;-62
2022/09/18 00:26:47;;;;;;;;;;;11.60;75.80;;;;;;5025608;28;19920;-60
2022/09/18 00:29:12;;;;;;;;;;;11.60;75.50;;;;;;5029807;28;19913;-61
2022/09/18 00:31:38;;;;;;;;;;;11.60;75.60;;;;;;5031697;28;19916;-60
2022/09/18 00:34:06;;;;;;;;;;;11.60;75.60;;;;;;5034746;28;19997;-61
2022/09/18 00:36:32;;;;;;;;;;;11.60;75.70;;;;;;5031605;28;20381;-61
2022/09/18 00:39:01;;;;;;;;;;;11.60;75.80;;;;;;5033581;28;19913;-60
2022/09/18 00:41:31;;;;;;;;;;;11.60;75.80;;;;;;5032841;28;20480;-61
2022/09/18 00:44:15;;;;;;;;;;;11.60;75.80;;;;;;5033512;28;19932;-61
2022/09/18 00:46:42;;;;;;;;;;;11.60;75.90;;;;;;5029911;28;19917;-59
2022/09/18 00:49:08;;;;;;;;;;;11.60;76.10;;;;;;5033689;28;20129;-62
2022/09/18 00:51:35;;;;;;;;;;;11.60;76.00;;;;;;5035404;28;20412;-60
2022/09/18 00:54:13;;;;;;;;;;;11.60;76.10;;;;;;5030561;28;19917;-59
2022/09/18 00:56:39;;;;;;;;;;;11.60;76.50;;;;;;5033801;28;19924;-61
2022/09/18 00:59:05;;;;;;;;;;;11.60;76.20;;;;;;5034676;28;19920;-61
2022/09/18 01:01:31;;;;;;;;;;;11.60;76.30;;;;;;5029440;28;19970;-61
2022/09/18 01:03:56;;;;;;;;;;;11.60;76.70;;;;;;5029732;28;19935;-60
2022/09/18 01:06:29;;;;;;;;;;;11.60;76.80;;;;;;5032502;28;19916;-61
2022/09/18 01:09:12;;;;;;;;;;;11.60;76.80;;;;;;5032585;28;19916;-60
2022/09/18 01:11:43;;;;;;;;;;;11.60;76.50;;;;;;5027585;28;20012;-61
2022/09/18 01:14:17;;;;;;;;;;;11.60;76.50;;;;;;5032377;28;20291;-60
2022/09/18 01:16:46;;;;;;;;;;;11.60;76.10;;;;;;5026030;28;20512;-60
2022/09/18 01:19:14;;;;;;;;;;;11.60;76.60;;;;;;5031086;28;19912;-61
2022/09/18 01:21:47;;;;;;;;;;;11.60;76.50;;;;;;5033339;28;19917;-62
2022/09/18 01:24:28;;;;;;;;;;;11.60;76.50;;;;;;5031899;28;19979;-60
2022/09/18 01:26:54;;;;;;;;;;;11.60;76.40;;;;;;5031308;28;20640;-60
2022/09/18 01:29:41;;;;;;;;;;;11.70;76.40;;;;;;5031624;28;19979;-61
2022/09/18 01:32:09;;;;;;;;;;;11.70;77.20;;;;;;5030056;28;19959;-60
2022/09/18 01:34:47;;;;;;;;;;;11.70;76.30;;;;;;5031991;28;20043;-60
2022/09/18 01:37:19;;;;;;;;;;;11.70;76.30;;;;;;5031661;28;19913;-61
2022/09/18 01:39:57;;;;;;;;;;;11.70;76.20;;;;;;5034585;28;20558;-60
2022/09/18 01:42:25;;;;;;;;;;;11.70;76.30;;;;;;5031041;28;20548;-59
2022/09/18 01:44:53;;;;;;;;;;;11.70;76.20;;;;;;5031319;28;20400;-61
2022/09/18 01:47:19;;;;;;;;;;;11.70;76.00;;;;;;5028776;28;19924;-61
2022/09/18 01:49:45;;;;;;;;;;;11.70;75.80;;;;;;5031200;28;19972;-59
2022/09/18 01:52:15;;;;;;;;;;;11.70;75.80;;;;;;5033567;28;19916;-61
2022/09/18 01:54:41;;;;;;;;;;;11.70;76.30;;;;;;5032244;28;20292;-60
2022/09/18 01:57:20;;;;;;;;;;;11.70;75.80;;;;;;5032225;28;19916;-61
2022/09/18 01:59:49;;;;;;;;;;;11.70;76.00;;;;;;5033108;28;20308;-61
2022/09/18 02:02:22;;;;;;;;;;;11.70;75.90;;;;;;5031707;28;19923;-61
2022/09/18 02:04:50;;;;;;;;;;;11.80;76.10;;;;;;5033228;28;20019;-60
2022/09/18 02:07:29;;;;;;;;;;;11.70;76.30;;;;;;5033707;28;19963;-60
2022/09/18 02:09:55;;;;;;;;;;;11.70;76.10;;;;;;5032206;28;19920;-61
2022/09/18 02:12:22;;;;;;;;;;;11.70;76.30;;;;;;5027312;28;19920;-61
2022/09/18 02:14:49;;;;;;;;;;;11.70;76.10;;;;;;5031415;28;19995;-59
2022/09/18 02:17:20;;;;;;;;;;;11.70;76.00;;;;;;5031701;28;20397;-61
2022/09/18 02:19:49;;;;;;;;;;;11.70;75.90;;;;;;5031410;28;20540;-62
2022/09/18 02:22:16;;;;;;;;;;;11.70;76.10;;;;;;5028372;28;19916;-61
2022/09/18 02:24:43;;;;;;;;;;;11.70;76.30;;;;;;5031580;28;19913;-60
2022/09/18 02:27:11;;;;;;;;;;;11.70;76.10;;;;;;5029294;28;19924;-60
2022/09/18 02:29:39;;;;;;;;;;;11.70;76.40;;;;;;5029400;28;19958;-59
2022/09/18 02:32:05;;;;;;;;;;;11.70;76.60;;;;;;5030692;28;19917;-62
2022/09/18 02:34:31;;;;;;;;;;;11.70;76.20;;;;;;5028060;28;20377;-60
2022/09/18 02:36:59;;;;;;;;;;;11.70;76.40;;;;;;5031615;28;20055;-61
2022/09/18 02:39:31;;;;;;;;;;;11.70;76.10;;;;;;5034179;28;20281;-60
2022/09/18 02:42:15;;;;;;;;;;;11.70;76.30;;;;;;5028710;28;19920;-60
2022/09/18 02:44:47;;;;;;;;;;;11.70;76.30;;;;;;5029342;28;21328;-60
2022/09/18 02:47:24;;;;;;;;;;;11.70;76.20;;;;;;5029674;28;19927;-58
2022/09/18 02:49:52;;;;;;;;;;;11.70;76.30;;;;;;5027599;28;19917;-61
2022/09/18 02:52:24;;;;;;;;;;;11.70;76.20;;;;;;5031109;28;19917;-60
2022/09/18 02:54:55;;;;;;;;;;;11.60;76.10;;;;;;5030737;28;19917;-60
2022/09/18 02:57:36;;;;;;;;;;;11.70;76.30;;;;;;5034325;28;19916;-61
2022/09/18 03:00:03;;;;;;;;;;;11.70;76.30;;;;;;5033711;28;20386;-61
2022/09/18 03:02:29;;;;;;;;;;;11.70;76.10;;;;;;5033370;28;19921;-59
2022/09/18 03:04:54;;;;;;;;;;;11.70;76.00;;;;;;5032395;28;19917;-61
2022/09/18 03:07:20;;;;;;;;;;;11.70;76.10;;;;;;5032081;28;19921;-62
2022/09/18 03:09:46;;;;;;;;;;;11.70;76.00;;;;;;5035036;28;19927;-60
2022/09/18 03:12:11;;;;;;;;;;;11.70;76.00;;;;;;5032995;28;19921;-61
2022/09/18 03:14:37;;;;;;;;;;;11.70;75.80;;;;;;5033156;28;19920;-59
2022/09/18 03:17:06;;;;;;;;;;;11.70;75.80;;;;;;5033214;28;19948;-60
2022/09/18 03:19:31;;;;;;;;;;;11.70;75.80;;;;;;5034700;28;20398;-60
2022/09/18 03:21:57;;;;;;;;;;;11.80;75.90;;;;;;5033971;28;20415;-61
2022/09/18 03:24:24;;;;;;;;;;;11.80;76.60;;;;;;5034457;28;20305;-61
2022/09/18 03:26:50;;;;;;;;;;;11.80;75.80;;;;;;5031542;28;19917;-61
2022/09/18 03:29:16;;;;;;;;;;;11.80;75.80;;;;;;5036381;28;19913;-60
2022/09/18 03:31:41;;;;;;;;;;;11.80;75.60;;;;;;5035919;28;19917;-59
2022/09/18 03:34:07;;;;;;;;;;;11.80;75.70;;;;;;5036446;28;20279;-61
2022/09/18 03:36:32;;;;;;;;;;;11.70;75.60;;;;;;5034212;28;19924;-60
2022/09/18 03:38:58;;;;;;;;;;;11.80;75.80;;;;;;5036580;28;19909;-60
2022/09/18 03:41:23;;;;;;;;;;;11.70;75.60;;;;;;5034720;28;20399;-61
2022/09/18 03:43:49;;;;;;;;;;;11.70;75.60;;;;;;5033777;28;19920;-61
2022/09/18 03:46:21;;;;;;;;;;;11.70;75.60;;;;;;5032503;28;19928;-59
2022/09/18 03:48:47;;;;;;;;;;;11.70;75.60;;;;;;5033117;28;19921;-60
2022/09/18 03:51:12;;;;;;;;;;;11.70;75.60;;;;;;5033077;28;19917;-59
2022/09/18 03:53:38;;;;;;;;;;;11.70;75.70;;;;;;5032099;28;20014;-61
2022/09/18 03:56:04;;;;;;;;;;;11.70;76.10;;;;;;5033018;28;19944;-62
2022/09/18 03:58:32;;;;;;;;;;;11.70;75.80;;;;;;5030349;28;19913;-62
2022/09/18 04:00:57;;;;;;;;;;;11.70;75.80;;;;;;5031770;28;19920;-61
2022/09/18 04:03:23;;;;;;;;;;;11.70;75.70;;;;;;5032147;28;19913;-61
2022/09/18 04:05:49;;;;;;;;;;;11.70;75.80;;;;;;5026769;28;20364;-62
2022/09/18 04:08:16;;;;;;;;;;;11.70;75.80;;;;;;5029501;28;19913;-62
2022/09/18 04:10:41;;;;;;;;;;;11.70;75.90;;;;;;5025530;28;19920;-61
2022/09/18 04:13:06;;;;;;;;;;;11.70;75.80;;;;;;5029249;28;20003;-61
2022/09/18 04:15:32;;;;;;;;;;;11.70;75.90;;;;;;5029981;28;20377;-60
2022/09/18 04:17:57;;;;;;;;;;;11.60;75.80;;;;;;5027456;28;19920;-60
2022/09/18 04:20:23;;;;;;;;;;;11.70;75.90;;;;;;5031005;28;20252;-61
2022/09/18 04:22:49;;;;;;;;;;;11.60;75.80;;;;;;5026734;28;19924;-60
2022/09/18 04:25:14;;;;;;;;;;;11.70;75.80;;;;;;5027887;28;20170;-61
2022/09/18 04:27:40;;;;;;;;;;;11.70;75.60;;;;;;5028945;28;20504;-62
2022/09/18 04:30:05;;;;;;;;;;;11.70;75.60;;;;;;5030342;28;20179;-58
2022/09/18 04:32:31;;;;;;;;;;;11.70;75.80;;;;;;5028824;28;19925;-61
2022/09/18 04:34:56;;;;;;;;;;;11.70;75.80;;;;;;5029319;28;20364;-61
2022/09/18 04:37:22;;;;;;;;;;;11.70;75.60;;;;;;5027034;28;19957;-61
2022/09/18 04:39:47;;;;;;;;;;;11.70;75.60;;;;;;5027802;28;20406;-61
2022/09/18 04:42:13;;;;;;;;;;;11.70;75.70;;;;;;5028193;28;19960;-60
2022/09/18 04:44:39;;;;;;;;;;;11.70;75.60;;;;;;5027319;28;19940;-60
2022/09/18 04:47:05;;;;;;;;;;;11.70;75.90;;;;;;5027218;28;19920;-60
2022/09/18 04:49:30;;;;;;;;;;;11.70;76.00;;;;;;5031067;28;20012;-59
2022/09/18 04:51:56;;;;;;;;;;;11.70;76.00;;;;;;5026169;28;20676;-60
2022/09/18 04:54:21;;;;;;;;;;;11.70;76.00;;;;;;5028962;28;20325;-59
2022/09/18 04:56:47;;;;;;;;;;;11.70;76.00;;;;;;5026753;28;19927;-59
2022/09/18 04:59:12;;;;;;;;;;;11.70;76.00;;;;;;5029131;28;19913;-62
2022/09/18 05:01:38;;;;;;;;;;;11.70;76.00;;;;;;5029481;28;19921;-61
2022/09/18 05:04:03;;;;;;;;;;;11.70;75.90;;;;;;5026848;28;19913;-60
2022/09/18 05:06:28;;;;;;;;;;;11.70;75.90;;;;;;5029668;28;19917;-60
2022/09/18 05:08:54;;;;;;;;;;;11.70;75.90;;;;;;5028884;28;19913;-61
2022/09/18 05:11:19;;;;;;;;;;;11.70;76.00;;;;;;5025057;28;19928;-61
2022/09/18 05:13:48;;;;;;;;;;;11.70;76.00;;;;;;5028347;28;19917;-60
2022/09/18 05:16:13;;;;;;;;;;;11.70;75.70;;;;;;5029826;28;20491;-60
2022/09/18 05:18:39;;;;;;;;;;;11.70;75.70;;;;;;5030336;28;19913;-61
2022/09/18 05:21:05;;;;;;;;;;;11.70;75.90;;;;;;5034355;28;19920;-60
2022/09/18 05:23:33;;;;;;;;;;;11.70;75.80;;;;;;5031240;28;19938;-61
2022/09/18 05:25:59;;;;;;;;;;;11.60;75.90;;;;;;5030975;28;19917;-58
2022/09/18 05:28:25;;;;;;;;;;;11.70;75.80;;;;;;5032481;28;19913;-61
2022/09/18 05:30:50;;;;;;;;;;;11.70;76.00;;;;;;5033116;28;20743;-59
2022/09/18 05:33:15;;;;;;;;;;;11.70;76.00;;;;;;5032390;28;19913;-62
2022/09/18 05:35:41;;;;;;;;;;;11.70;75.90;;;;;;5032409;28;19913;-59
2022/09/18 05:38:08;;;;;;;;;;;11.70;75.80;;;;;;5031908;28;19919;-60
2022/09/18 05:40:35;;;;;;;;;;;11.70;76.00;;;;;;5029176;28;19917;-59
2022/09/18 05:43:02;;;;;;;;;;;11.60;76.00;;;;;;5034025;28;19917;-61
2022/09/18 05:45:30;;;;;;;;;;;11.70;76.00;;;;;;5031164;28;19920;-60
2022/09/18 05:47:56;;;;;;;;;;;11.60;76.00;;;;;;5034660;28;20396;-61
2022/09/18 05:50:23;;;;;;;;;;;11.60;76.00;;;;;;5031787;28;20171;-61
2022/09/18 05:52:58;;;;;;;;;;;11.60;76.10;;;;;;5032416;28;20039;-59
2022/09/18 05:55:24;;;;;;;;;;;11.60;76.20;;;;;;5031395;28;20560;-59
2022/09/18 05:57:53;;;;;;;;;;;11.60;76.10;;;;;;5033245;28;19913;-61
2022/09/18 06:00:18;;;;;;;;;;;11.60;76.10;;;;;;5033569;28;19917;-59
2022/09/18 06:02:50;;;;;;;;;;;11.60;76.30;;;;;;5028735;28;19929;-62
2022/09/18 06:05:16;;;;;;;;;;;11.60;76.20;;;;;;5032911;28;19982;-62
2022/09/18 06:07:41;;;;;;;;;;;11.60;76.50;;;;;;5032284;28;20388;-59
2022/09/18 06:10:07;;;;;;;;;;;11.70;76.30;;;;;;5028992;28;20401;-61
2022/09/18 06:12:32;;;;;;;;;;;11.60;76.90;;;;;;5031008;28;19962;-61
2022/09/18 06:14:58;;;;;;;;;;;11.70;76.10;;;;;;5030373;28;19913;-60
2022/09/18 06:17:23;;;;;;;;;;;11.60;76.00;;;;;;5031687;28;19921;-60
2022/09/18 06:19:49;;;;;;;;;;;11.70;76.00;;;;;;5031968;28;20346;-61
2022/09/18 06:22:14;;;;;;;;;;;11.70;76.00;;;;;;5032567;28;20290;-60
2022/09/18 06:24:40;;;;;;;;;;;11.70;75.90;;;;;;5031055;28;19928;-60
2022/09/18 06:27:05;;;;;;;;;;;11.70;75.80;;;;;;5029894;28;19919;-61
2022/09/18 06:29:31;;;;;;;;;;;11.80;75.80;;;;;;5032960;28;19916;-60
2022/09/18 06:31:56;;;;;;;;;;;11.80;75.80;;;;;;5031790;28;19966;-61
2022/09/18 06:34:22;;;;;;;;;;;11.80;75.70;;;;;;5030037;28;19917;-61
2022/09/18 06:36:47;;;;;;;;;;;11.80;75.80;;;;;;5026994;28;19917;-58
2022/09/18 06:39:13;;;;;;;;;;;11.90;75.90;;;;;;5032264;28;20484;-60
2022/09/18 06:41:38;;;;;;;;;;;11.90;75.70;;;;;;5028701;28;19923;-61
2022/09/18 06:44:04;;;;;;;;;;;11.90;75.70;;;;;;5029945;28;20448;-60
2022/09/18 06:46:29;;;;;;;;;;;11.90;75.60;;;;;;5031184;28;19913;-62
2022/09/18 06:48:54;;;;;;;;;;;11.90;75.60;;;;;;5032059;28;19912;-59
2022/09/18 06:51:20;;;;;;;;;;;12.00;75.60;;;;;;5028235;28;19973;-59
2022/09/18 06:53:45;;;;;;;;;;;12.00;75.70;;;;;;5030671;28;20399;-60
2022/09/18 06:56:11;;;;;;;;;;;12.00;75.60;;;;;;5030012;28;19928;-59
2022/09/18 06:58:36;;;;;;;;;;;12.00;75.60;;;;;;5030480;28;20025;-61
2022/09/18 07:01:02;;;;;;;;;;;12.00;75.60;;;;;;5031592;28;19924;-60
2022/09/18 07:03:27;;;;;;;;;;;12.10;75.60;;;;;;5026959;28;19912;-59
2022/09/18 07:05:53;;;;;;;;;;;12.10;75.40;;;;;;5029153;28;19917;-61
2022/09/18 07:08:18;;;;;;;;;;;12.10;75.40;;;;;;5030558;28;20007;-60
2022/09/18 07:10:44;;;;;;;;;;;12.10;75.10;;;;;;5029310;28;19921;-61
2022/09/18 07:13:09;;;;;;;;;;;12.10;75.10;;;;;;5027109;28;20350;-61
2022/09/18 07:15:35;;;;;;;;;;;12.10;74.90;;;;;;5033852;28;19913;-60
2022/09/18 07:18:02;;;;;;;;;;;12.20;75.10;;;;;;5030699;28;20019;-62
2022/09/18 07:20:28;;;;;;;;;;;12.10;75.10;;;;;;5028162;28;20320;-59
2022/09/18 07:22:55;;;;;;;;;;;12.20;75.20;;;;;;5029945;28;19939;-60
2022/09/18 07:25:20;;;;;;;;;;;12.20;75.10;;;;;;5034210;28;19913;-60
2022/09/18 07:27:46;;;;;;;;;;;12.20;75.10;;;;;;5025514;28;19975;-62
2022/09/18 07:30:12;;;;;;;;;;;12.20;75.10;;;;;;5030014;28;19979;-61
2022/09/18 07:32:37;;;;;;;;;;;12.20;75.00;;;;;;5030028;28;20383;-61
2022/09/18 07:35:03;;;;;;;;;;;12.30;75.00;;;;;;5029326;28;19928;-59
2022/09/18 07:37:28;;;;;;;;;;;12.30;74.80;;;;;;5031007;28;19927;-60
2022/09/18 07:39:54;;;;;;;;;;;12.30;74.90;;;;;;5032488;28;20011;-59
2022/09/18 07:42:19;;;;;;;;;;;12.30;74.60;;;;;;5027670;28;20145;-62
2022/09/18 07:44:45;;;;;;;;;;;12.40;74.80;;;;;;5026997;28;19944;-59
2022/09/18 07:47:11;;;;;;;;;;;12.40;74.70;;;;;;5032800;28;20398;-60
2022/09/18 07:49:37;;;;;;;;;;;12.50;74.70;;;;;;5030603;28;19921;-62
2022/09/18 07:52:03;;;;;;;;;;;12.50;74.70;;;;;;5029462;28;19921;-62
2022/09/18 07:54:29;;;;;;;;;;;12.50;74.60;;;;;;5030940;28;20542;-61
2022/09/18 07:56:55;;;;;;;;;;;12.50;74.70;;;;;;5030405;28;19962;-62
2022/09/18 07:59:20;;;;;;;;;;;12.60;74.80;;;;;;5031170;28;19952;-60
2022/09/18 08:01:46;;;;;;;;;;;12.60;74.80;;;;;;5028373;28;19924;-59
2022/09/18 08:04:11;;;;;;;;;;;12.60;74.60;;;;;;5031267;28;19923;-61
2022/09/18 08:06:37;;;;;;;;;;;12.70;74.40;;;;;;5029209;28;20716;-61
2022/09/18 08:09:02;;;;;;;;;;;12.70;74.50;;;;;;5032897;28;19921;-60
2022/09/18 08:11:28;;;;;;;;;;;12.70;74.20;;;;;;5025920;28;21471;-62
2022/09/18 08:13:53;;;;;;;;;;;12.70;74.30;;;;;;5023919;28;20412;-61
2022/09/18 08:16:20;;;;;;;;;;;12.80;74.20;;;;;;5027497;28;19996;-60
2022/09/18 08:18:46;;;;;;;;;;;12.80;74.20;;;;;;5027490;28;20521;-60
2022/09/18 08:21:11;;;;;;;;;;;12.80;74.00;;;;;;5026120;28;19928;-60
2022/09/18 08:23:37;;;;;;;;;;;12.90;73.50;;;;;;5028378;28;20006;-62
2022/09/18 08:26:03;;;;;;;;;;;12.90;73.80;;;;;;5029693;28;19924;-59
2022/09/18 08:28:29;;;;;;;;;;;12.90;73.50;;;;;;5027217;28;20082;-60
2022/09/18 08:30:55;;;;;;;;;;;13.00;73.90;;;;;;5029557;28;19927;-61
2022/09/18 08:33:21;;;;;;;;;;;13.00;73.70;;;;;;5028133;28;19917;-60
2022/09/18 08:35:46;;;;;;;;;;;13.00;73.60;;;;;;5030028;28;19917;-59
2022/09/18 08:38:12;;;;;;;;;;;13.00;73.70;;;;;;5027994;28;20403;-60
2022/09/18 08:40:37;;;;;;;;;;;13.10;73.80;;;;;;5032244;28;19924;-60
2022/09/18 08:43:06;;;;;;;;;;;13.10;73.70;;;;;;5027458;28;19999;-59
2022/09/18 08:45:49;;;;;;;;;;;13.20;73.70;;;;;;5027422;28;19923;-60
2022/09/18 08:48:18;;;;;;;;;;;13.20;73.70;;;;;;5027901;28;20392;-61
2022/09/18 08:50:47;;;;;;;;;;;13.20;73.00;;;;;;5033619;28;20818;-61
2022/09/18 08:53:15;;;;;;;;;;;13.30;73.20;;;;;;5030954;28;20293;-60
2022/09/18 08:55:42;;;;;;;;;;;13.40;73.50;;;;;;5036280;28;19916;-61
2022/09/18 08:58:11;;;;;;;;;;;13.30;73.40;;;;;;5039071;28;19970;-62
2022/09/18 09:00:40;;;;;;;;;;;13.40;73.50;;;;;;5034312;28;20295;-60
2022/09/18 09:03:15;;;;;;;;;;;13.40;73.60;;;;;;5033192;28;19916;-61
2022/09/18 09:05:48;;;;;;;;;;;13.50;73.30;;;;;;5021563;28;19917;-59
2022/09/18 09:08:14;;;;;;;;;;;13.60;72.80;;;;;;5024664;28;20383;-61
2022/09/18 09:10:57;;;;;;;;;;;13.60;73.20;;;;;;5028337;28;19927;-59
2022/09/18 09:13:26;;;;;;;;;;;13.60;72.50;;;;;;5033202;28;19963;-61
2022/09/18 09:16:04;;;;;;;;;;;13.70;72.70;;;;;;5036070;28;19913;-59
2022/09/18 09:18:29;;;;;;;;;;;13.70;72.60;;;;;;5033724;28;20338;-60
2022/09/18 09:20:56;;;;;;;;;;;13.80;72.80;;;;;;5035579;28;19917;-61
2022/09/18 09:23:41;;;;;;;;;;;13.80;72.80;;;;;;5036897;28;20368;-60
2022/09/18 09:26:10;;;;;;;;;;;13.90;72.40;;;;;;5025526;28;21153;-60
2022/09/18 09:28:59;;;;;;;;;;;13.90;72.30;;;;;;5033756;28;19916;-60
2022/09/18 09:31:31;;;;;;;;;;;14.00;71.40;;;;;;5034364;28;19948;-61
2022/09/18 09:34:03;;;;;;;;;;;14.00;71.20;;;;;;5033125;28;20007;-61
2022/09/18 09:36:29;;;;;;;;;;;14.10;71.20;;;;;;5027132;28;19913;-61
2022/09/18 09:39:14;;;;;;;;;;;14.10;71.30;;;;;;5029166;28;19917;-61
2022/09/18 09:41:41;;;;;;;;;;;14.20;70.90;;;;;;5030192;28;20007;-61
2022/09/18 09:44:25;;;;;;;;;;;14.20;71.30;;;;;;5031271;28;19921;-61
2022/09/18 09:47:03;;;;;;;;;;;14.30;71.50;;;;;;5029715;28;19919;-59
2022/09/18 09:49:31;;;;;;;;;;;14.40;70.20;;;;;;5035225;28;19971;-60
2022/09/18 09:52:06;;;;;;;;;;;14.40;69.60;;;;;;5037958;28;19928;-60
2022/09/18 09:54:31;;;;;;;;;;;14.50;69.50;;;;;;5039167;28;20327;-60
2022/09/18 09:57:04;;;;;;;;;;;14.50;70.00;;;;;;5030299;28;19920;-61
2022/09/18 09:59:48;;;;;;;;;;;14.50;70.30;;;;;;5032557;28;19921;-61
2022/09/18 10:02:35;;;;;;;;;;;14.50;70.00;;;;;;5033384;28;19929;-61
2022/09/18 10:05:30;;;;;;;;;;;14.60;70.60;;;;;;5025564;28;19921;-61
2022/09/18 10:08:01;;;;;;;;;;;14.60;70.60;;;;;;5018900;28;20542;-61
2022/09/18 10:10:30;;;;;;;;;;;14.60;70.60;;;;;;5010321;28;19991;-60
2022/09/18 10:12:59;;;;;;;;;;;14.70;70.90;;;;;;5004490;28;19921;-61
2022/09/18 10:15:37;;;;;;;;;;;14.70;71.10;;;;;;5010491;28;19921;-60
2022/09/18 10:18:04;;;;;;;;;;;14.80;70.20;;;;;;5012057;28;19913;-61
2022/09/18 10:20:30;;;;;;;;;;;14.80;69.30;;;;;;5012518;28;19917;-60
2022/09/18 10:23:04;;;;;;;;;;;14.80;69.90;;;;;;5009734;28;20444;-60
2022/09/18 10:25:53;;;;;;;;;;;14.80;69.60;;;;;;5004862;28;20008;-60
2022/09/18 10:28:20;;;;;;;;;;;14.90;70.20;;;;;;5011228;28;20307;-60
2022/09/18 10:30:52;;;;;;;;;;;14.90;70.60;;;;;;5006614;28;19913;-59
2022/09/18 10:33:38;;;;;;;;;;;14.90;70.30;;;;;;5006923;28;19948;-60
2022/09/18 10:36:16;;;;;;;;;;;14.90;70.60;;;;;;5013072;28;20408;-61
2022/09/18 10:38:41;;;;;;;;;;;14.90;70.90;;;;;;5003497;28;19928;-60
2022/09/18 10:41:26;;;;;;;;;;;14.90;69.30;;;;;;5009588;28;20297;-59
2022/09/18 10:43:53;;;;;;;;;;;15.00;69.10;;;;;;5013620;28;20274;-60
2022/09/18 10:46:23;;;;;;;;;;;14.90;67.70;;;;;;5006496;28;19975;-61
2022/09/18 10:48:50;;;;;;;;;;;15.00;65.90;;;;;;5008204;28;19931;-59
2022/09/18 10:51:19;;;;;;;;;;;15.00;65.00;;;;;;5013792;28;19917;-59
2022/09/18 10:53:44;;;;;;;;;;;14.90;64.90;;;;;;5009402;28;20792;-60
2022/09/18 10:56:15;;;;;;;;;;;14.90;64.10;;;;;;5013038;28;19920;-60
2022/09/18 10:58:42;;;;;;;;;;;14.90;62.50;;;;;;5010994;28;19945;-59
2022/09/18 11:01:08;;;;;;;;;;;14.90;64.30;;;;;;5010529;28;19928;-61
2022/09/18 11:03:40;;;;;;;;;;;14.80;65.50;;;;;;5009469;28;20182;-59
2022/09/18 11:06:05;;;;;;;;;;;14.80;66.90;;;;;;5006542;28;19913;-60
2022/09/18 11:08:33;;;;;;;;;;;14.80;64.50;;;;;;5012103;28;19913;-60
2022/09/18 11:11:00;;;;;;;;;;;14.80;64.80;;;;;;5011856;28;20293;-60
2022/09/18 11:13:27;;;;;;;;;;;14.90;64.30;;;;;;5012254;28;19928;-60
2022/09/18 11:15:55;;;;;;;;;;;14.90;66.00;;;;;;5007755;28;20612;-59
2022/09/18 11:18:22;;;;;;;;;;;14.90;66.60;;;;;;5011199;28;19913;-60
2022/09/18 11:20:48;;;;;;;;;;;14.90;67.60;;;;;;5007209;28;19932;-59
2022/09/18 11:23:27;;;;;;;;;;;14.90;67.80;;;;;;5012578;28;20340;-59
2022/09/18 11:26:12;;;;;;;;;;;15.00;68.10;;;;;;5013633;28;19921;-61
2022/09/18 11:28:38;;;;;;;;;;;15.00;68.10;;;;;;5025660;28;19935;-59
2022/09/18 11:31:14;;;;;;;;;;;15.00;68.10;;;;;;5030967;28;19916;-61
2022/09/18 11:33:53;;;;;;;;;;;15.00;64.90;;;;;;5031903;28;19967;-60
2022/09/18 11:36:24;;;;;;;;;;;15.00;67.50;;;;;;5030859;28;19956;-59
2022/09/18 11:38:50;;;;;;;;;;;15.00;68.00;;;;;;5029230;28;19916;-59
2022/09/18 11:41:35;;;;;;;;;;;15.00;68.10;;;;;;5027772;28;20127;-61
2022/09/18 11:44:12;;;;;;;;;;;15.00;65.70;;;;;;5029095;28;20622;-62
2022/09/18 11:46:47;;;;;;;;;;;15.10;63.90;;;;;;5028005;28;19923;-60
2022/09/18 11:49:18;;;;;;;;;;;15.10;65.20;;;;;;5029954;28;19917;-59
2022/09/18 11:51:58;;;;;;;;;;;15.10;63.60;;;;;;5030149;28;19913;-61
2022/09/18 11:54:26;;;;;;;;;;;15.10;62.80;;;;;;5032681;28;19916;-59
2022/09/18 11:56:54;;;;;;;;;;;15.10;63.90;;;;;;5032549;28;19925;-58
2022/09/18 11:59:25;;;;;;;;;;;15.10;63.30;;;;;;5030199;28;19913;-59
2022/09/18 12:01:53;;;;;;;;;;;15.10;64.00;;;;;;5032217;28;19917;-62
2022/09/18 12:04:31;;;;;;;;;;;15.10;62.70;;;;;;5029916;28;20434;-61
2022/09/18 12:07:00;;;;;;;;;;;15.00;63.90;;;;;;5029383;28;21702;-60
2022/09/18 12:09:31;;;;;;;;;;;15.10;64.60;;;;;;5034176;28;19924;-61
2022/09/18 12:12:03;;;;;;;;;;;15.10;64.50;;;;;;5028882;28;19913;-61
2022/09/18 12:14:47;;;;;;;;;;;15.10;64.20;;;;;;5028754;28;19917;-59
2022/09/18 12:17:17;;;;;;;;;;;15.10;61.80;;;;;;5033004;28;19942;-61
2022/09/18 12:19:49;;;;;;;;;;;15.10;63.20;;;;;;5032208;28;19925;-60
2022/09/18 12:22:23;;;;;;;;;;;15.10;64.50;;;;;;5032370;28;19920;-60
2022/09/18 12:24:49;;;;;;;;;;;15.10;64.60;;;;;;5033653;28;20800;-59
2022/09/18 12:27:23;;;;;;;;;;;15.10;62.50;;;;;;5036442;28;19963;-61
2022/09/18 12:29:52;;;;;;;;;;;15.10;62.10;;;;;;5034296;28;21032;-59
2022/09/18 12:32:17;;;;;;;;;;;15.10;62.30;;;;;;5036712;28;20385;-61
2022/09/18 12:34:52;;;;;;;;;;;15.10;62.90;;;;;;5034835;28;19967;-59
2022/09/18 12:37:47;;;;;;;;;;;15.20;62.80;;;;;;5039078;28;19923;-61
2022/09/18 12:40:22;;;;;;;;;;;15.20;62.60;;;;;;5041221;28;19913;-61
2022/09/18 12:42:56;;;;;;;;;;;15.20;64.20;;;;;;5034419;28;19927;-60
2022/09/18 12:45:41;;;;;;;;;;;15.30;63.20;;;;;;5034712;28;19923;-60
2022/09/18 12:48:25;;;;;;;;;;;15.40;61.90;;;;;;5035925;28;20304;-57
2022/09/18 12:50:54;;;;;;;;;;;15.40;61.10;;;;;;5035861;28;19932;-61
2022/09/18 12:53:35;;;;;;;;;;;15.50;64.50;;;;;;5032812;28;19921;-62
2022/09/18 12:56:15;;;;;;;;;;;15.60;63.70;;;;;;5034134;28;20347;-59
2022/09/18 12:58:47;;;;;;;;;;;15.60;60.70;;;;;;5032840;28;20289;-60
2022/09/18 13:01:18;;;;;;;;;;;15.70;62.20;;;;;;5036588;28;19916;-61
2022/09/18 13:03:46;;;;;;;;;;;15.80;60.80;;;;;;5032445;28;19952;-61
2022/09/18 13:06:13;;;;;;;;;;;15.80;61.20;;;;;;5031569;28;19921;-61
2022/09/18 13:08:43;;;;;;;;;;;15.80;57.50;;;;;;5034101;28;20362;-62
2022/09/18 13:11:34;;;;;;;;;;;15.90;61.10;;;;;;5032232;28;19920;-60
2022/09/18 13:14:12;;;;;;;;;;;15.90;60.00;;;;;;5032131;28;20008;-60
2022/09/18 13:16:45;;;;;;;;;;;16.00;59.90;;;;;;5035176;28;19966;-60
2022/09/18 13:19:11;;;;;;;;;;;16.00;59.30;;;;;;5034282;28;19935;-61
2022/09/18 13:21:40;;;;;;;;;;;16.10;59.50;;;;;;5030642;28;19928;-59
2022/09/18 13:24:10;;;;;;;;;;;16.10;55.70;;;;;;5032324;28;20304;-61
2022/09/18 13:26:38;;;;;;;;;;;16.20;55.00;;;;;;5035464;28;20403;-59
2022/09/18 13:29:23;;;;;;;;;;;16.30;56.30;;;;;;5032369;28;19971;-61
2022/09/18 13:31:51;;;;;;;;;;;16.20;57.20;;;;;;5034054;28;19925;-61
2022/09/18 13:34:17;;;;;;;;;;;16.20;55.30;;;;;;5035627;28;19948;-59
2022/09/18 13:36:44;;;;;;;;;;;16.30;57.00;;;;;;5034070;28;19957;-59
2022/09/18 13:39:26;;;;;;;;;;;16.30;55.40;;;;;;5035261;28;19916;-61
2022/09/18 13:41:53;;;;;;;;;;;16.30;55.50;;;;;;5034878;28;19927;-59
2022/09/18 13:44:22;;;;;;;;;;;16.40;58.20;;;;;;5035004;28;19913;-61
2022/09/18 13:46:51;;;;;;;;;;;16.40;57.60;;;;;;5034112;28;19913;-61
2022/09/18 13:49:18;;;;;;;;;;;16.40;57.30;;;;;;5035565;28;20062;-60
2022/09/18 13:51:44;;;;;;;;;;;16.50;56.60;;;;;;5027498;28;19916;-60
2022/09/18 13:54:10;;;;;;;;;;;16.50;55.00;;;;;;5033848;28;20273;-62
2022/09/18 13:56:54;;;;;;;;;;;16.60;56.00;;;;;;5034149;28;19913;-59
2022/09/18 13:59:21;;;;;;;;;;;16.60;54.00;;;;;;5032079;28;20802;-59
2022/09/18 14:01:49;;;;;;;;;;;16.60;53.50;;;;;;5033485;28;19928;-61
2022/09/18 14:04:33;;;;;;;;;;;16.60;53.40;;;;;;5032828;28;19967;-59
2022/09/18 14:06:59;;;;;;;;;;;16.60;52.90;;;;;;5043326;28;19924;-59
2022/09/18 14:09:43;;;;;;;;;;;16.60;53.00;;;;;;5068260;28;19916;-61
2022/09/18 14:12:13;;;;;;;;;;;16.60;55.00;;;;;;5066276;28;19946;-61
2022/09/18 14:14:38;;;;;;;;;;;16.50;53.80;;;;;;5071890;28;19916;-61
2022/09/18 14:17:11;;;;;;;;;;;16.50;55.20;;;;;;5072536;28;20027;-61
2022/09/18 14:19:39;;;;;;;;;;;16.50;57.00;;;;;;5069757;28;19959;-62
2022/09/18 14:22:20;;;;;;;;;;;16.50;54.70;;;;;;5071453;28;20394;-61
2022/09/18 14:24:48;;;;;;;;;;;16.50;56.10;;;;;;5068659;28;19947;-62
2022/09/18 14:27:23;;;;;;;;;;;16.50;56.50;;;;;;5071223;28;19916;-60
2022/09/18 14:29:53;;;;;;;;;;;16.50;56.00;;;;;;5072339;28;19916;-62